Nearby METAR Reports

 

EGKA - Shoreham-By-Sea, United Kingdom
Distance from station: SW 9mi, 14km
Updated: Tue, 21-Aug-2018 7:50pm BST
Few Clouds
Few Clouds
 Wind from SW
Wind: SW 8 mph , 13 km/h
Temperature: 18°C
Dew Point: 15°C
Humidity: 83%
Barometer: 1018 hPa
Clouds: Few Clouds
Visibility: 6 miles , 10 km
Cloud details: Few Clouds 274 m
2018/08/21 18:50 EGKA 211850Z 22007KT 9999 FEW009 18/15 Q1018
EGKK - London/Gatwick A, United Kingdom
Distance from station: N 14mi, 22km
Updated: Tue, 21-Aug-2018 7:50pm BST
Clear
Clear
 Wind from SSW
Wind: SSW 7 mph , 11 km/h
Temperature: 20°C
Dew Point: 16°C
Humidity: 78%
Barometer: 1018 hPa
Summary: Clear
Visibility: greater than 7 miles , 10 km
2018/08/21 18:50 EGKK 211850Z 20006KT CAVOK 20/16 Q1018
 
EGKB - Biggin Hill, United Kingdom
Distance from station: NNE 28mi, 44km
Updated: Tue, 21-Aug-2018 7:50pm BST
Clear
Clear
 Wind from SSW
Wind: SSW 12 mph , 19 km/h
Temperature: 20°C
Dew Point: 16°C
Humidity: 78%
Barometer: 1018 hPa
Summary: Clear
Visibility: greater than 7 miles , 10 km
2018/08/21 18:50 EGKB 211850Z 20010KT CAVOK 20/16 Q1018
EGLF - Farnborough, United Kingdom
Distance from station: NW 35mi, 56km
Updated: Tue, 21-Aug-2018 7:50pm BST
Clear
Clear
 Wind from SSW
Wind: SSW 10 mph , 17 km/h
Temperature: 21°C
Dew Point: 16°C
Humidity: 73%
Barometer: 1017 hPa
Summary: Clear
Visibility: greater than 7 miles , 10 km
2018/08/21 18:50 EGLF 211850Z 21009KT CAVOK 21/16 Q1017
 
EGMD - Lydd Airport, United Kingdom
Distance from station: E 48mi, 77km
Updated: Tue, 21-Aug-2018 7:50pm BST
Overcast
Overcast
 Wind from SW
Wind: SW 15 mph , 24 km/h
Temperature: 18°C
Dew Point: 16°C
Humidity: 88%
Barometer: 1019 hPa
Clouds: Overcast
Visibility: 6 miles , 10 km
Cloud details: Overcast 305 m
2018/08/21 18:50 EGMD 211850Z AUTO 23013KT 9999 OVC010/// 18/16 Q1019
EGHI - Southampton Wx C, United Kingdom
Distance from station: W 50mi, 82km
Updated: Tue, 21-Aug-2018 7:50pm BST
Clear
Clear
 Wind from WSW
Wind: WSW 7 mph , 11 km/h
Temperature: 19°C
Dew Point: 14°C
Humidity: 73%
Barometer: 1018 hPa
Summary: Clear
Visibility: greater than 7 miles , 10 km
2018/08/21 18:50 EGHI 211850Z 24006KT CAVOK 19/14 Q1018

Metar display script from Saratoga-Weather.org